AAL527 KCLT-KDCA
Flight info
| Callsign | AAL527 |
|---|---|
| Flight time | 0h 47m |
| Altitude | 37000 |
| Route | KILNS5 AUDII WAVES CAPSS4 |
| Aircraft | A320/M-SDE3FGHIRWY/LB1 |
Departure
| Time | 2026-05-07 00:49 |
|---|---|
| Airport | Charlotte Douglas International Airport (KCLT) |
Arrival
| Time | 2026-05-07 01:36 |
|---|---|
| Airport | Ronald Reagan Washington National Airport (KDCA) |
| Time | Latitude | Longitude | Altitude | Speed | Heading |
|---|---|---|---|---|---|
| 2026-05-07 00:38 | 35.22222 | -80.94788 | 733 ft | 0 kts | 22° |
| 2026-05-07 00:43 | 35.22208 | -80.94795 | 731 ft | 2 kts | 15° |
| 2026-05-07 00:43 | 35.22192 | -80.94799 | 732 ft | 2 kts | 3° |
| 2026-05-07 00:43 | 35.22175 | -80.94797 | 733 ft | 2 kts | 307° |
| 2026-05-07 00:44 | 35.22170 | -80.94781 | 732 ft | 1 kts | 269° |
| 2026-05-07 00:44 | 35.22170 | -80.94776 | 732 ft | 0 kts | 267° |
| 2026-05-07 00:45 | 35.22169 | -80.94788 | 733 ft | 8 kts | 266° |
| 2026-05-07 00:45 | 35.22159 | -80.94935 | 733 ft | 20 kts | 268° |
| 2026-05-07 00:46 | 35.22212 | -80.95035 | 733 ft | 14 kts | 273° |
| 2026-05-07 00:46 | 35.22285 | -80.95080 | 734 ft | 11 kts | 356° |
| 2026-05-07 00:46 | 35.22358 | -80.95086 | 734 ft | 10 kts | 356° |
| 2026-05-07 00:46 | 35.22441 | -80.95093 | 734 ft | 18 kts | 355° |
| 2026-05-07 00:47 | 35.22592 | -80.95108 | 734 ft | 23 kts | 355° |
| 2026-05-07 00:47 | 35.22729 | -80.95134 | 734 ft | 11 kts | 301° |
| 2026-05-07 00:47 | 35.22731 | -80.95194 | 735 ft | 0 kts | 264° |
| 2026-05-07 00:48 | 35.22731 | -80.95200 | 735 ft | 5 kts | 264° |
| 2026-05-07 00:48 | 35.22697 | -80.95301 | 740 ft | 15 kts | 207° |
| 2026-05-07 00:48 | 35.22657 | -80.95311 | 741 ft | 0 kts | 171° |
| 2026-05-07 00:48 | 35.22485 | -80.95296 | 741 ft | 66 kts | 177° |
| 2026-05-07 00:49 | 35.21781 | -80.95238 | 742 ft | 134 kts | 176° |
| 2026-05-07 00:49 | 35.20702 | -80.95128 | 1021 ft | 162 kts | 178° |
| 2026-05-07 00:49 | 35.19578 | -80.94993 | 1815 ft | 161 kts | 182° |
| 2026-05-07 00:49 | 35.18466 | -80.94866 | 2610 ft | 165 kts | 182° |
| 2026-05-07 00:50 | 35.17292 | -80.94313 | 3062 ft | 206 kts | 150° |
| 2026-05-07 00:50 | 35.16258 | -80.92885 | 3483 ft | 240 kts | 134° |
| 2026-05-07 00:50 | 35.15331 | -80.91046 | 3983 ft | 273 kts | 116° |
| 2026-05-07 00:50 | 35.15139 | -80.88639 | 4731 ft | 299 kts | 81° |
| 2026-05-07 00:51 | 35.15830 | -80.86208 | 5665 ft | 307 kts | 67° |
| 2026-05-07 00:51 | 35.16692 | -80.83791 | 6594 ft | 312 kts | 65° |
| 2026-05-07 00:51 | 35.17602 | -80.81361 | 7527 ft | 317 kts | 64° |
| 2026-05-07 00:51 | 35.18534 | -80.78903 | 8448 ft | 321 kts | 63° |
| 2026-05-07 00:52 | 35.19473 | -80.76411 | 9389 ft | 325 kts | 64° |
| 2026-05-07 00:52 | 35.20410 | -80.73886 | 10260 ft | 331 kts | 64° |
| 2026-05-07 00:52 | 35.21387 | -80.71220 | 10640 ft | 355 kts | 64° |
| 2026-05-07 00:52 | 35.22418 | -80.68380 | 11118 ft | 370 kts | 64° |
| 2026-05-07 00:53 | 35.23463 | -80.65494 | 11970 ft | 373 kts | 65° |
| 2026-05-07 00:53 | 35.24522 | -80.62568 | 12780 ft | 378 kts | 64° |
| 2026-05-07 00:53 | 35.25592 | -80.59608 | 13515 ft | 384 kts | 65° |
| 2026-05-07 00:53 | 35.26675 | -80.56598 | 14241 ft | 389 kts | 64° |
| 2026-05-07 00:54 | 35.27769 | -80.53549 | 14900 ft | 394 kts | 64° |
| 2026-05-07 00:54 | 35.28886 | -80.50449 | 15451 ft | 403 kts | 64° |
| 2026-05-07 00:54 | 35.30031 | -80.47282 | 16056 ft | 410 kts | 63° |
| 2026-05-07 00:54 | 35.30801 | -80.45156 | 16491 ft | 414 kts | 63° |
| 2026-05-07 00:55 | 35.32364 | -80.40818 | 17392 ft | 420 kts | 63° |
| 2026-05-07 00:55 | 35.33164 | -80.38594 | 17836 ft | 423 kts | 63° |
| 2026-05-07 00:55 | 35.34355 | -80.35281 | 18473 ft | 428 kts | 63° |
| 2026-05-07 00:55 | 35.35554 | -80.31949 | 19037 ft | 432 kts | 63° |
| 2026-05-07 00:56 | 35.36780 | -80.28536 | 19630 ft | 438 kts | 62° |
| 2026-05-07 00:56 | 35.38014 | -80.25089 | 20118 ft | 445 kts | 62° |
| 2026-05-07 00:56 | 35.39262 | -80.21593 | 20662 ft | 450 kts | 63° |
| 2026-05-07 00:56 | 35.40518 | -80.18058 | 21229 ft | 455 kts | 63° |
| 2026-05-07 00:57 | 35.41786 | -80.14486 | 21821 ft | 458 kts | 62° |
| 2026-05-07 00:57 | 35.43066 | -80.10891 | 22438 ft | 461 kts | 62° |
| 2026-05-07 00:57 | 35.44356 | -80.07269 | 23003 ft | 465 kts | 62° |
| 2026-05-07 00:57 | 35.45654 | -80.03621 | 23544 ft | 470 kts | 62° |
| 2026-05-07 00:58 | 35.46962 | -79.99927 | 23979 ft | 474 kts | 62° |
| 2026-05-07 00:58 | 35.48279 | -79.96209 | 24406 ft | 477 kts | 62° |
| 2026-05-07 00:58 | 35.49609 | -79.92461 | 24824 ft | 480 kts | 62° |
| 2026-05-07 00:58 | 35.50946 | -79.88685 | 25255 ft | 484 kts | 62° |
| 2026-05-07 00:59 | 35.53629 | -79.81056 | 26069 ft | 490 kts | 63° |
| 2026-05-07 00:59 | 35.54920 | -79.77168 | 26496 ft | 493 kts | 65° |
| 2026-05-07 00:59 | 35.56156 | -79.73220 | 26888 ft | 496 kts | 66° |
| 2026-05-07 01:00 | 35.57357 | -79.69243 | 27283 ft | 499 kts | 66° |
| 2026-05-07 01:00 | 35.58560 | -79.65227 | 27660 ft | 502 kts | 66° |
| 2026-05-07 01:00 | 35.59779 | -79.61195 | 28029 ft | 505 kts | 66° |
| 2026-05-07 01:00 | 35.61022 | -79.57143 | 28399 ft | 508 kts | 66° |
| 2026-05-07 01:01 | 35.62283 | -79.53080 | 28766 ft | 511 kts | 66° |
| 2026-05-07 01:01 | 35.63561 | -79.48988 | 29119 ft | 514 kts | 66° |
| 2026-05-07 01:01 | 35.64847 | -79.44879 | 29465 ft | 516 kts | 66° |
| 2026-05-07 01:01 | 35.66135 | -79.40748 | 29811 ft | 518 kts | 66° |
| 2026-05-07 01:02 | 35.67417 | -79.36611 | 30207 ft | 518 kts | 66° |
| 2026-05-07 01:02 | 35.68801 | -79.32525 | 30490 ft | 517 kts | 60° |
| 2026-05-07 01:02 | 35.70611 | -79.28715 | 30739 ft | 515 kts | 50° |
| 2026-05-07 01:02 | 35.72835 | -79.25289 | 30961 ft | 510 kts | 41° |
| 2026-05-07 01:03 | 35.75403 | -79.22317 | 31188 ft | 505 kts | 32° |
| 2026-05-07 01:03 | 35.78211 | -79.19720 | 31395 ft | 506 kts | 28° |
| 2026-05-07 01:03 | 35.81056 | -79.17133 | 31584 ft | 510 kts | 28° |
| 2026-05-07 01:03 | 35.83903 | -79.14530 | 31880 ft | 511 kts | 28° |
| 2026-05-07 01:04 | 35.86755 | -79.11912 | 32193 ft | 511 kts | 28° |
| 2026-05-07 01:04 | 35.89604 | -79.09287 | 32504 ft | 511 kts | 27° |
| 2026-05-07 01:04 | 35.92450 | -79.06657 | 32821 ft | 512 kts | 27° |
| 2026-05-07 01:04 | 35.95302 | -79.04022 | 32939 ft | 510 kts | 27° |
| 2026-05-07 01:05 | 35.98107 | -79.01426 | 32710 ft | 501 kts | 27° |
| 2026-05-07 01:05 | 36.00843 | -78.98898 | 32278 ft | 496 kts | 27° |
| 2026-05-07 01:05 | 36.03641 | -78.96324 | 31828 ft | 494 kts | 27° |
| 2026-05-07 01:05 | 36.06403 | -78.93788 | 31388 ft | 494 kts | 28° |
| 2026-05-07 01:06 | 36.09158 | -78.91255 | 30965 ft | 494 kts | 28° |
| 2026-05-07 01:06 | 36.11910 | -78.88717 | 30544 ft | 494 kts | 29° |
| 2026-05-07 01:06 | 36.14659 | -78.86173 | 30123 ft | 494 kts | 30° |
| 2026-05-07 01:06 | 36.17407 | -78.83625 | 29647 ft | 493 kts | 30° |
| 2026-05-07 01:07 | 36.20150 | -78.81075 | 29163 ft | 493 kts | 30° |
| 2026-05-07 01:07 | 36.22885 | -78.78505 | 28955 ft | 494 kts | 31° |
| 2026-05-07 01:07 | 36.25611 | -78.75901 | 28976 ft | 496 kts | 31° |
| 2026-05-07 01:08 | 36.31053 | -78.70623 | 28952 ft | 497 kts | 32° |
| 2026-05-07 01:08 | 36.36486 | -78.65330 | 28955 ft | 499 kts | 32° |
| 2026-05-07 01:09 | 36.42036 | -78.59970 | 28953 ft | 509 kts | 32° |
| 2026-05-07 01:09 | 36.47632 | -78.54560 | 28946 ft | 511 kts | 32° |
| 2026-05-07 01:10 | 36.53198 | -78.49162 | 28949 ft | 511 kts | 32° |
| 2026-05-07 01:10 | 36.58801 | -78.43715 | 28950 ft | 511 kts | 32° |
| 2026-05-07 01:11 | 36.64397 | -78.38253 | 28957 ft | 511 kts | 32° |
| 2026-05-07 01:11 | 36.70003 | -78.32782 | 28946 ft | 513 kts | 33° |
| 2026-05-07 01:12 | 36.75632 | -78.27284 | 28958 ft | 514 kts | 33° |
| 2026-05-07 01:12 | 36.81260 | -78.21761 | 28966 ft | 515 kts | 33° |
| 2026-05-07 01:13 | 36.86891 | -78.16239 | 28974 ft | 515 kts | 33° |
| 2026-05-07 01:13 | 36.92538 | -78.10703 | 28923 ft | 519 kts | 32° |
| 2026-05-07 01:14 | 36.98227 | -78.05101 | 28923 ft | 521 kts | 33° |
| 2026-05-07 01:14 | 37.03911 | -77.99473 | 28922 ft | 521 kts | 33° |
| 2026-05-07 01:15 | 37.09590 | -77.93839 | 28917 ft | 520 kts | 33° |
| 2026-05-07 01:15 | 37.15293 | -77.88182 | 28926 ft | 525 kts | 32° |
| 2026-05-07 01:16 | 37.21039 | -77.82486 | 28928 ft | 527 kts | 32° |
| 2026-05-07 01:16 | 37.26780 | -77.76778 | 28934 ft | 527 kts | 32° |
| 2026-05-07 01:16 | 37.29654 | -77.73908 | 28692 ft | 527 kts | 32° |
| 2026-05-07 01:17 | 37.32522 | -77.71044 | 28303 ft | 528 kts | 32° |
| 2026-05-07 01:17 | 37.35401 | -77.68171 | 27494 ft | 528 kts | 32° |
| 2026-05-07 01:17 | 37.38270 | -77.65304 | 26792 ft | 527 kts | 32° |
| 2026-05-07 01:17 | 37.41140 | -77.62432 | 26072 ft | 527 kts | 32° |
| 2026-05-07 01:18 | 37.43999 | -77.59566 | 25422 ft | 522 kts | 32° |
| 2026-05-07 01:18 | 37.46806 | -77.56739 | 24655 ft | 514 kts | 32° |
| 2026-05-07 01:18 | 37.49590 | -77.53942 | 24073 ft | 511 kts | 32° |
| 2026-05-07 01:18 | 37.52372 | -77.51152 | 23400 ft | 510 kts | 31° |
| 2026-05-07 01:19 | 37.55149 | -77.48371 | 22696 ft | 511 kts | 31° |
| 2026-05-07 01:19 | 37.58056 | -77.45865 | 22131 ft | 501 kts | 21° |
| 2026-05-07 01:19 | 37.61206 | -77.44128 | 21894 ft | 489 kts | 10° |
| 2026-05-07 01:19 | 37.64467 | -77.43037 | 21924 ft | 485 kts | 6° |
| 2026-05-07 01:20 | 37.67734 | -77.42020 | 21921 ft | 479 kts | 6° |
| 2026-05-07 01:20 | 37.70884 | -77.41020 | 21388 ft | 454 kts | 6° |
| 2026-05-07 01:20 | 37.73909 | -77.40062 | 20167 ft | 443 kts | 5° |
| 2026-05-07 01:20 | 37.76890 | -77.39139 | 19103 ft | 441 kts | 5° |
| 2026-05-07 01:21 | 37.79836 | -77.38236 | 18834 ft | 428 kts | 6° |
| 2026-05-07 01:21 | 37.82674 | -77.37358 | 18611 ft | 414 kts | 5° |
| 2026-05-07 01:21 | 37.85427 | -77.36508 | 18486 ft | 399 kts | 5° |
| 2026-05-07 01:21 | 37.88078 | -77.35685 | 18278 ft | 388 kts | 5° |
| 2026-05-07 01:22 | 37.90677 | -77.34882 | 17838 ft | 382 kts | 5° |
| 2026-05-07 01:22 | 37.93253 | -77.34093 | 17335 ft | 379 kts | 5° |
| 2026-05-07 01:22 | 37.95809 | -77.33315 | 16846 ft | 376 kts | 5° |
| 2026-05-07 01:22 | 37.98343 | -77.32543 | 16378 ft | 374 kts | 5° |
| 2026-05-07 01:23 | 38.00863 | -77.31765 | 15910 ft | 371 kts | 6° |
| 2026-05-07 01:23 | 38.03364 | -77.30997 | 15449 ft | 369 kts | 6° |
| 2026-05-07 01:23 | 38.05843 | -77.30238 | 15034 ft | 361 kts | 6° |
| 2026-05-07 01:23 | 38.08265 | -77.29492 | 14278 ft | 356 kts | 7° |
| 2026-05-07 01:24 | 38.10656 | -77.28749 | 13481 ft | 352 kts | 7° |
| 2026-05-07 01:24 | 38.13019 | -77.28007 | 12611 ft | 348 kts | 8° |
| 2026-05-07 01:24 | 38.15358 | -77.27269 | 11760 ft | 345 kts | 8° |
| 2026-05-07 01:24 | 38.17671 | -77.26537 | 11287 ft | 339 kts | 8° |
| 2026-05-07 01:25 | 38.19920 | -77.25821 | 11093 ft | 326 kts | 7° |
| 2026-05-07 01:25 | 38.22076 | -77.25128 | 10628 ft | 315 kts | 8° |
| 2026-05-07 01:25 | 38.24198 | -77.24453 | 10142 ft | 314 kts | 7° |
| 2026-05-07 01:25 | 38.26306 | -77.23787 | 9911 ft | 311 kts | 7° |
| 2026-05-07 01:26 | 38.28412 | -77.23121 | 9790 ft | 312 kts | 7° |
| 2026-05-07 01:26 | 38.30522 | -77.22454 | 9598 ft | 312 kts | 8° |
| 2026-05-07 01:26 | 38.32608 | -77.21713 | 9204 ft | 313 kts | 15° |
| 2026-05-07 01:26 | 38.34548 | -77.20416 | 8787 ft | 318 kts | 30° |
| 2026-05-07 01:27 | 38.36387 | -77.18930 | 8547 ft | 311 kts | 23° |
| 2026-05-07 01:27 | 38.38315 | -77.17774 | 8251 ft | 301 kts | 17° |
| 2026-05-07 01:27 | 38.40236 | -77.16807 | 7981 ft | 293 kts | 14° |
| 2026-05-07 01:27 | 38.42128 | -77.15903 | 7729 ft | 287 kts | 14° |
| 2026-05-07 01:28 | 38.43973 | -77.15010 | 7461 ft | 280 kts | 15° |
| 2026-05-07 01:28 | 38.45741 | -77.14123 | 7192 ft | 266 kts | 15° |
| 2026-05-07 01:28 | 38.47418 | -77.13252 | 6928 ft | 253 kts | 16° |
| 2026-05-07 01:28 | 38.49003 | -77.12410 | 6671 ft | 241 kts | 16° |
| 2026-05-07 01:29 | 38.50510 | -77.11597 | 6432 ft | 230 kts | 16° |
| 2026-05-07 01:29 | 38.51951 | -77.10815 | 6187 ft | 220 kts | 15° |
| 2026-05-07 01:29 | 38.53333 | -77.10068 | 5939 ft | 214 kts | 15° |
| 2026-05-07 01:29 | 38.54695 | -77.09338 | 5738 ft | 211 kts | 15° |
| 2026-05-07 01:30 | 38.56037 | -77.08620 | 5454 ft | 208 kts | 15° |
| 2026-05-07 01:30 | 38.57367 | -77.07905 | 5147 ft | 207 kts | 15° |
| 2026-05-07 01:30 | 38.58692 | -77.07189 | 4853 ft | 206 kts | 16° |
| 2026-05-07 01:30 | 38.60003 | -77.06480 | 4554 ft | 205 kts | 16° |
| 2026-05-07 01:31 | 38.61319 | -77.05769 | 4248 ft | 205 kts | 16° |
| 2026-05-07 01:31 | 38.62624 | -77.05064 | 3944 ft | 203 kts | 17° |
| 2026-05-07 01:31 | 38.63917 | -77.04364 | 3664 ft | 200 kts | 18° |
| 2026-05-07 01:31 | 38.65194 | -77.03672 | 3367 ft | 198 kts | 18° |
| 2026-05-07 01:32 | 38.66462 | -77.02988 | 3081 ft | 197 kts | 19° |
| 2026-05-07 01:32 | 38.67724 | -77.02343 | 2982 ft | 193 kts | 11° |
| 2026-05-07 01:32 | 38.69036 | -77.02168 | 2884 ft | 189 kts | 352° |
| 2026-05-07 01:32 | 38.70338 | -77.02281 | 2675 ft | 186 kts | 351° |
| 2026-05-07 01:33 | 38.71619 | -77.02411 | 2427 ft | 182 kts | 351° |
| 2026-05-07 01:33 | 38.72868 | -77.02537 | 2190 ft | 178 kts | 351° |
| 2026-05-07 01:33 | 38.74097 | -77.02662 | 1973 ft | 178 kts | 351° |
| 2026-05-07 01:33 | 38.75310 | -77.02783 | 1744 ft | 169 kts | 351° |
| 2026-05-07 01:34 | 38.76463 | -77.02899 | 1521 ft | 164 kts | 352° |
| 2026-05-07 01:34 | 38.77586 | -77.03012 | 1305 ft | 159 kts | 352° |
| 2026-05-07 01:34 | 38.78668 | -77.03121 | 1107 ft | 157 kts | 352° |
| 2026-05-07 01:34 | 38.79751 | -77.03230 | 924 ft | 154 kts | 353° |
| 2026-05-07 01:35 | 38.80787 | -77.03334 | 720 ft | 143 kts | 354° |
| 2026-05-07 01:35 | 38.81754 | -77.03432 | 531 ft | 138 kts | 354° |
| 2026-05-07 01:35 | 38.82701 | -77.03527 | 357 ft | 137 kts | 355° |
| 2026-05-07 01:35 | 38.83329 | -77.03591 | 235 ft | 137 kts | 355° |
| 2026-05-07 01:36 | 38.84277 | -77.03688 | 47 ft | 136 kts | 355° |
| 2026-05-07 01:36 | 38.85073 | -77.03774 | 24 ft | 80 kts | 354° |
| 2026-05-07 01:36 | 38.85488 | -77.03816 | 25 ft | 14 kts | 339° |
| 2026-05-07 01:36 | 38.85507 | -77.03875 | 25 ft | 6 kts | 272° |
| 2026-05-07 01:37 | 38.85522 | -77.03927 | 26 ft | 9 kts | 307° |
| 2026-05-07 01:37 | 38.85540 | -77.04060 | 26 ft | 18 kts | 227° |
| 2026-05-07 01:37 | 38.85484 | -77.04104 | 24 ft | 0 kts | 217° |